createdAt,value
2018-12-20T00:00:01.874Z,0.00
2018-12-20T00:01:01.914Z,0.00
2018-12-20T00:02:01.760Z,0.00
2018-12-20T00:03:01.684Z,0.00
2018-12-20T00:04:01.636Z,0.00
2018-12-20T00:05:01.601Z,0.00
2018-12-20T00:06:01.589Z,0.00
2018-12-20T00:07:01.570Z,0.00
2018-12-20T00:08:01.508Z,0.00
2018-12-20T00:09:01.500Z,0.00
2018-12-20T00:10:01.566Z,0.00
2018-12-20T00:11:01.422Z,0.00
2018-12-20T00:12:01.426Z,0.00
2018-12-20T00:13:01.414Z,0.00
2018-12-20T00:14:01.314Z,0.00
2018-12-20T00:15:01.373Z,0.00
2018-12-20T00:16:01.361Z,0.00
2018-12-20T00:17:01.216Z,0.00
2018-12-20T00:18:01.214Z,0.00
2018-12-20T00:19:01.173Z,0.00
2018-12-20T00:20:01.124Z,0.00
2018-12-20T00:21:01.089Z,0.00
2018-12-20T00:22:01.058Z,0.00
2018-12-20T00:23:01.151Z,0.00
2018-12-20T00:24:00.992Z,0.00
2018-12-20T00:25:00.978Z,0.00
2018-12-20T00:26:00.935Z,0.00
2018-12-20T00:27:00.920Z,0.00
2018-12-20T00:28:00.944Z,0.00
2018-12-20T00:29:00.834Z,0.00
2018-12-20T00:30:00.871Z,0.00
2018-12-20T00:31:00.844Z,0.00
2018-12-20T00:32:00.737Z,0.00
2018-12-20T00:33:00.736Z,0.00
2018-12-20T00:34:00.797Z,0.00
2018-12-20T00:35:00.713Z,0.00
2018-12-20T00:36:00.624Z,0.00
2018-12-20T00:37:00.678Z,0.00
2018-12-20T00:38:00.709Z,0.00
2018-12-20T00:39:00.551Z,0.00
2018-12-20T00:40:06.495Z,0.00
2018-12-20T00:41:00.658Z,0.00
2018-12-20T00:42:00.424Z,0.00
2018-12-20T00:43:00.406Z,0.00
2018-12-20T00:44:00.359Z,0.00
2018-12-20T00:45:00.339Z,0.00
2018-12-20T00:46:00.291Z,0.00
2018-12-20T00:47:00.264Z,0.00
2018-12-20T00:48:00.410Z,0.00
2018-12-20T00:49:00.218Z,0.00
2018-12-20T00:50:00.172Z,0.00
2018-12-20T00:51:00.165Z,0.00
2018-12-20T00:52:00.113Z,0.00
2018-12-20T00:53:00.321Z,0.00
2018-12-20T00:54:00.059Z,0.00
2018-12-20T00:55:00.156Z,0.00
2018-12-20T00:56:00.020Z,0.00
2018-12-20T00:56:59.974Z,0.00
2018-12-20T00:57:59.911Z,0.00
2018-12-20T00:58:59.884Z,0.00
2018-12-20T00:59:59.955Z,0.00
2018-12-20T01:00:59.813Z,0.00
2018-12-20T01:01:59.921Z,0.00
2018-12-20T01:02:59.944Z,0.00
2018-12-20T01:03:59.728Z,0.00
2018-12-20T01:04:59.701Z,0.00
2018-12-20T01:05:59.706Z,0.00
2018-12-20T01:06:59.799Z,0.00
2018-12-20T01:07:59.750Z,0.00
2018-12-20T01:08:59.662Z,0.00
2018-12-20T01:09:59.675Z,0.00
2018-12-20T01:10:59.496Z,0.00
2018-12-20T01:11:59.473Z,0.00
2018-12-20T01:12:59.432Z,0.00
2018-12-20T01:13:59.403Z,0.00
2018-12-20T01:14:59.427Z,0.00
2018-12-20T01:15:59.432Z,0.00
2018-12-20T01:16:59.308Z,0.00
2018-12-20T01:17:59.272Z,0.00
2018-12-20T01:18:59.285Z,0.00
2018-12-20T01:19:59.348Z,0.00
2018-12-20T01:20:59.180Z,0.00
2018-12-20T01:21:59.146Z,0.00
2018-12-20T01:22:59.260Z,0.00
2018-12-20T01:23:59.177Z,0.00
2018-12-20T01:24:59.112Z,0.00
2018-12-20T01:25:59.162Z,0.00
2018-12-20T01:26:58.992Z,0.00
2018-12-20T01:27:58.984Z,0.00
2018-12-20T01:28:58.921Z,0.00
2018-12-20T01:29:58.999Z,0.00
2018-12-20T01:30:58.905Z,0.00
2018-12-20T01:31:58.826Z,0.00
2018-12-20T01:32:58.794Z,0.00
2018-12-20T01:33:58.897Z,0.00
2018-12-20T01:34:58.734Z,0.00
2018-12-20T01:35:58.728Z,0.00
2018-12-20T01:36:58.669Z,0.00
2018-12-20T01:37:58.637Z,0.00
2018-12-20T01:38:58.820Z,0.00
2018-12-20T01:39:58.571Z,0.00
2018-12-20T01:40:58.569Z,0.00
2018-12-20T01:41:58.520Z,0.00
2018-12-20T01:42:58.642Z,0.00
2018-12-20T01:43:58.549Z,0.00
2018-12-20T01:44:58.413Z,0.00
2018-12-20T01:45:58.638Z,0.00
2018-12-20T01:46:58.737Z,0.00
2018-12-20T01:47:58.329Z,0.00
2018-12-20T01:48:58.429Z,0.00
2018-12-20T01:49:58.253Z,0.00
2018-12-20T01:50:58.343Z,0.00
2018-12-20T01:51:58.309Z,0.00
2018-12-20T01:52:58.156Z,0.00
2018-12-20T01:53:58.136Z,0.00
2018-12-20T01:54:58.264Z,0.00
2018-12-20T01:55:58.075Z,0.00
2018-12-20T01:56:58.119Z,0.00
2018-12-20T01:57:58.000Z,0.00
2018-12-20T01:58:57.972Z,0.00
2018-12-20T01:59:58.099Z,0.00
2018-12-20T02:00:58.210Z,0.00
2018-12-20T02:01:57.866Z,0.00
2018-12-20T02:02:57.852Z,0.00
2018-12-20T02:03:58.037Z,0.00
2018-12-20T02:04:57.843Z,0.00
2018-12-20T02:05:57.739Z,0.00
2018-12-20T02:06:57.713Z,0.00
2018-12-20T02:07:57.701Z,0.00
2018-12-20T02:08:57.691Z,0.00
2018-12-20T02:09:57.611Z,0.00
2018-12-20T02:10:57.756Z,0.00
2018-12-20T02:11:57.564Z,0.00
2018-12-20T02:12:57.516Z,0.00
2018-12-20T02:13:57.485Z,0.00
2018-12-20T02:15:01.605Z,0.00
2018-12-20T02:15:57.654Z,0.00
2018-12-20T02:16:57.476Z,0.00
2018-12-20T02:17:57.351Z,0.00
2018-12-20T02:18:57.327Z,0.00
2018-12-20T02:19:57.369Z,0.00
2018-12-20T02:20:57.515Z,0.00
2018-12-20T02:21:57.237Z,0.00
2018-12-20T02:22:57.244Z,0.00
2018-12-20T02:23:57.454Z,0.00
2018-12-20T02:24:57.343Z,0.00
2018-12-20T02:25:57.094Z,0.00
2018-12-20T02:26:57.098Z,0.00
2018-12-20T02:27:57.029Z,0.00
2018-12-20T02:28:57.006Z,0.00
2018-12-20T02:29:57.006Z,0.00
2018-12-20T02:30:56.934Z,0.00
2018-12-20T02:31:56.903Z,0.00
2018-12-20T02:32:57.006Z,0.00
2018-12-20T02:33:56.839Z,0.00
2018-12-20T02:34:56.866Z,0.00
2018-12-20T02:35:56.868Z,0.00
2018-12-20T02:36:56.770Z,0.00
2018-12-20T02:37:56.726Z,0.00
2018-12-20T02:38:56.680Z,0.00
2018-12-20T02:39:56.669Z,0.00
2018-12-20T02:40:56.786Z,0.00
2018-12-20T02:41:56.614Z,0.00
2018-12-20T02:42:56.597Z,0.00
2018-12-20T02:43:56.673Z,0.00
2018-12-20T02:44:56.697Z,0.00
2018-12-20T02:45:56.452Z,0.00
2018-12-20T02:46:56.421Z,0.00
2018-12-20T02:47:56.430Z,0.00
2018-12-20T02:48:56.438Z,0.00
2018-12-20T02:49:56.341Z,0.00
2018-12-20T02:50:56.289Z,0.00
2018-12-20T02:51:56.336Z,0.00
2018-12-20T02:52:56.400Z,0.00
2018-12-20T02:53:56.298Z,0.00
2018-12-20T02:54:56.174Z,0.00
2018-12-20T02:55:56.359Z,0.00
2018-12-20T02:56:56.309Z,0.00
2018-12-20T02:57:56.068Z,0.00
2018-12-20T02:58:56.083Z,0.00
2018-12-20T02:59:56.014Z,0.00
2018-12-20T03:00:56.027Z,0.00
2018-12-20T03:01:56.089Z,0.00
2018-12-20T03:02:56.027Z,0.00
2018-12-20T03:03:55.867Z,0.00
2018-12-20T03:04:56.062Z,0.00
2018-12-20T03:05:55.803Z,0.00
2018-12-20T03:06:55.978Z,0.00
2018-12-20T03:07:55.917Z,0.00
2018-12-20T03:08:55.827Z,0.00
2018-12-20T03:09:55.831Z,0.00
2018-12-20T03:10:55.643Z,0.00
2018-12-20T03:11:55.609Z,0.00
2018-12-20T03:12:55.585Z,0.00
2018-12-20T03:13:55.553Z,0.00
2018-12-20T03:14:55.653Z,0.00
2018-12-20T03:15:55.581Z,0.00
2018-12-20T03:16:55.445Z,0.00
2018-12-20T03:17:55.448Z,0.00
2018-12-20T03:18:55.643Z,0.00
2018-12-20T03:19:55.381Z,0.00
2018-12-20T03:20:55.353Z,0.00
2018-12-20T03:21:55.346Z,0.00
2018-12-20T03:22:55.269Z,0.00
2018-12-20T03:23:55.408Z,0.00
2018-12-20T03:24:55.389Z,0.00
2018-12-20T03:25:55.265Z,0.00
2018-12-20T03:26:55.169Z,0.00
2018-12-20T03:27:55.296Z,0.00
2018-12-20T03:28:55.330Z,0.00
2018-12-20T03:29:55.067Z,0.00
2018-12-20T03:30:55.067Z,0.00
2018-12-20T03:31:55.089Z,0.00
2018-12-20T03:32:55.454Z,0.00
2018-12-20T03:33:54.894Z,0.00
2018-12-20T03:34:54.862Z,0.00
2018-12-20T03:35:54.856Z,0.00
2018-12-20T03:36:55.082Z,0.00
2018-12-20T03:37:54.763Z,0.00
2018-12-20T03:38:54.785Z,0.00
2018-12-20T03:39:56.789Z,0.00
2018-12-20T03:40:54.812Z,0.00
2018-12-20T03:41:54.639Z,0.00
2018-12-20T03:42:54.653Z,0.00
2018-12-20T03:43:54.591Z,0.00
2018-12-20T03:44:54.793Z,0.00
2018-12-20T03:45:54.505Z,0.00
2018-12-20T03:46:54.472Z,0.00
2018-12-20T03:47:54.466Z,0.00
2018-12-20T03:48:54.453Z,0.00
2018-12-20T03:49:54.485Z,0.00
2018-12-20T03:50:54.487Z,0.00
2018-12-20T03:51:54.317Z,0.00
2018-12-20T03:52:54.395Z,0.00
2018-12-20T03:53:54.404Z,0.00
2018-12-20T03:54:54.213Z,0.00
2018-12-20T03:55:54.456Z,0.00
2018-12-20T03:56:54.234Z,0.00
2018-12-20T03:57:54.187Z,0.00
2018-12-20T03:58:54.113Z,0.00
2018-12-20T03:59:54.048Z,0.00
2018-12-20T04:00:54.018Z,0.00
2018-12-20T04:01:54.023Z,0.00
2018-12-20T04:02:54.215Z,0.00
2018-12-20T04:03:53.920Z,0.00
2018-12-20T04:04:53.887Z,0.00
2018-12-20T04:05:53.860Z,0.00
2018-12-20T04:06:53.960Z,0.00
2018-12-20T04:07:53.936Z,0.00
2018-12-20T04:08:53.858Z,0.00
2018-12-20T04:09:53.832Z,0.00
2018-12-20T04:10:53.715Z,0.00
2018-12-20T04:11:53.782Z,0.00
2018-12-20T04:12:53.631Z,0.00
2018-12-20T04:13:53.637Z,0.00
2018-12-20T04:14:53.655Z,0.00
2018-12-20T04:15:53.556Z,0.00
2018-12-20T04:16:53.503Z,0.00
2018-12-20T04:17:53.742Z,0.00
2018-12-20T04:18:53.734Z,0.00
2018-12-20T04:19:53.644Z,0.00
2018-12-20T04:20:53.657Z,0.00
2018-12-20T04:21:53.551Z,0.00
2018-12-20T04:22:53.459Z,0.00
2018-12-20T04:23:53.640Z,0.00
2018-12-20T04:24:53.244Z,0.00
2018-12-20T04:25:53.255Z,0.00
2018-12-20T04:26:53.232Z,0.00
2018-12-20T04:27:53.259Z,0.00
2018-12-20T04:28:53.119Z,0.00
2018-12-20T04:29:53.089Z,0.00
2018-12-20T04:30:53.154Z,0.00
2018-12-20T04:31:53.217Z,0.00
2018-12-20T04:32:53.136Z,0.00
2018-12-20T04:33:53.098Z,0.00
2018-12-20T04:34:52.949Z,0.00
2018-12-20T04:35:52.957Z,0.00
2018-12-20T04:36:52.860Z,0.00
2018-12-20T04:37:52.867Z,0.00
2018-12-20T04:38:52.900Z,0.00
2018-12-20T04:39:52.837Z,0.00
2018-12-20T04:40:52.866Z,0.00
2018-12-20T04:41:52.698Z,0.00
2018-12-20T04:42:52.711Z,0.00
2018-12-20T04:43:52.633Z,0.00
2018-12-20T04:44:52.693Z,0.00
2018-12-20T04:45:52.569Z,0.00
2018-12-20T04:46:52.565Z,0.00
2018-12-20T04:47:52.505Z,0.00
2018-12-20T04:48:52.553Z,0.00
2018-12-20T04:49:52.682Z,0.00
2018-12-20T04:50:52.632Z,0.00
2018-12-20T04:51:52.376Z,0.00
2018-12-20T04:52:52.546Z,0.00
2018-12-20T04:53:52.505Z,0.00
2018-12-20T04:54:52.320Z,0.00
2018-12-20T04:55:52.531Z,0.00
2018-12-20T04:56:52.302Z,0.00
2018-12-20T04:57:52.183Z,0.00
2018-12-20T04:58:52.174Z,0.00
2018-12-20T04:59:52.166Z,0.00
2018-12-20T05:00:52.086Z,0.00
2018-12-20T05:01:52.173Z,0.00
2018-12-20T05:02:52.021Z,0.00
2018-12-20T05:03:51.989Z,0.00
2018-12-20T05:04:51.959Z,0.00
2018-12-20T05:05:51.972Z,0.00
2018-12-20T05:06:51.899Z,0.00
2018-12-20T05:07:51.861Z,0.00
2018-12-20T05:08:51.845Z,0.00
2018-12-20T05:09:51.793Z,0.00
2018-12-20T05:10:51.981Z,0.00
2018-12-20T05:11:51.837Z,0.00
2018-12-20T05:12:51.699Z,0.00
2018-12-20T05:13:51.665Z,0.00
2018-12-20T05:14:51.794Z,0.00
2018-12-20T05:15:56.006Z,0.00
2018-12-20T05:16:51.566Z,0.00
2018-12-20T05:17:51.765Z,0.00
2018-12-20T05:18:51.503Z,0.00
2018-12-20T05:19:51.614Z,0.00
2018-12-20T05:20:51.439Z,0.00
2018-12-20T05:21:51.406Z,0.00
2018-12-20T05:22:51.481Z,0.00
2018-12-20T05:23:51.519Z,0.00
2018-12-20T05:24:51.309Z,0.00
2018-12-20T05:25:51.276Z,0.00
2018-12-20T05:26:51.251Z,0.00
2018-12-20T05:27:51.445Z,0.00
2018-12-20T05:28:51.351Z,0.00
2018-12-20T05:29:51.347Z,0.00
2018-12-20T05:30:51.117Z,0.00
2018-12-20T05:31:51.083Z,0.00
2018-12-20T05:32:51.203Z,0.00
2018-12-20T05:33:51.165Z,0.00
2018-12-20T05:34:51.295Z,0.00
2018-12-20T05:35:50.985Z,0.00
2018-12-20T05:36:50.925Z,0.00
2018-12-20T05:37:50.889Z,0.00
2018-12-20T05:38:50.859Z,0.00
2018-12-20T05:39:50.875Z,0.00
2018-12-20T05:40:50.810Z,0.00
2018-12-20T05:41:50.786Z,0.00
2018-12-20T05:42:50.728Z,0.00
2018-12-20T05:43:50.739Z,0.00
2018-12-20T05:44:50.680Z,0.00
2018-12-20T05:45:50.631Z,0.00
2018-12-20T05:46:50.613Z,0.00
2018-12-20T05:47:50.712Z,0.00
2018-12-20T05:48:50.566Z,0.00
2018-12-20T05:49:50.697Z,0.00
2018-12-20T05:50:50.483Z,0.00
2018-12-20T05:51:50.475Z,0.00
2018-12-20T05:52:50.628Z,0.00
2018-12-20T05:53:50.371Z,0.00
2018-12-20T05:54:50.347Z,0.00
2018-12-20T05:55:50.306Z,0.00
2018-12-20T05:56:50.413Z,0.00
2018-12-20T05:57:50.550Z,0.00
2018-12-20T05:58:50.311Z,0.00
2018-12-20T05:59:50.178Z,0.00
2018-12-20T06:00:50.144Z,0.00
2018-12-20T06:01:50.203Z,0.00
2018-12-20T06:02:50.096Z,0.00
2018-12-20T06:03:50.049Z,0.00
2018-12-20T06:04:50.019Z,0.00
2018-12-20T06:05:50.017Z,0.00
2018-12-20T06:06:50.171Z,0.00
2018-12-20T06:07:50.077Z,0.00
2018-12-20T06:08:49.937Z,0.00
2018-12-20T06:09:49.935Z,0.00
2018-12-20T06:10:49.831Z,0.00
2018-12-20T06:11:49.997Z,0.00
2018-12-20T06:12:49.864Z,0.00
2018-12-20T06:13:49.813Z,0.00
2018-12-20T06:14:49.702Z,0.00
2018-12-20T06:15:49.871Z,0.00
2018-12-20T06:16:49.630Z,0.00
2018-12-20T06:17:49.614Z,0.00
2018-12-20T06:18:49.567Z,0.00
2018-12-20T06:19:49.688Z,0.00
2018-12-20T06:20:49.558Z,0.00
2018-12-20T06:21:49.474Z,0.00
2018-12-20T06:22:49.439Z,0.00
2018-12-20T06:23:49.406Z,0.00
2018-12-20T06:24:49.386Z,0.00
2018-12-20T06:25:49.356Z,0.00
2018-12-20T06:26:49.328Z,0.00
2018-12-20T06:27:49.276Z,0.00
2018-12-20T06:28:49.255Z,0.00
2018-12-20T06:29:49.216Z,0.00
2018-12-20T06:30:49.186Z,0.00
2018-12-20T06:31:49.160Z,0.00
2018-12-20T06:32:49.117Z,0.00
2018-12-20T06:33:49.085Z,0.00
2018-12-20T06:34:49.054Z,0.00
2018-12-20T06:35:49.020Z,0.00
2018-12-20T06:36:48.989Z,0.00
2018-12-20T06:37:48.960Z,0.00
2018-12-20T06:38:48.926Z,0.00
2018-12-20T06:39:48.894Z,0.00
2018-12-20T06:40:48.860Z,0.00
2018-12-20T06:41:48.828Z,0.00
2018-12-20T06:42:48.797Z,0.00
2018-12-20T06:43:48.770Z,0.00
2018-12-20T06:44:48.762Z,0.00
2018-12-20T06:45:48.704Z,0.00
2018-12-20T06:46:48.667Z,0.00
2018-12-20T06:47:48.636Z,0.00
2018-12-20T06:48:48.609Z,0.00
2018-12-20T06:49:48.572Z,0.00
2018-12-20T06:50:48.541Z,0.00
2018-12-20T06:51:48.511Z,0.00
2018-12-20T06:52:48.482Z,0.00
2018-12-20T06:53:48.444Z,0.00
2018-12-20T06:54:48.412Z,4.00
2018-12-20T06:55:48.378Z,4.00
2018-12-20T06:56:48.348Z,4.00
2018-12-20T06:57:48.316Z,4.00
2018-12-20T06:58:48.283Z,4.00
2018-12-20T06:59:48.251Z,4.00
2018-12-20T07:00:48.217Z,4.00
2018-12-20T07:01:48.186Z,8.00
2018-12-20T07:02:48.155Z,8.00
2018-12-20T07:03:48.121Z,8.00
2018-12-20T07:04:48.092Z,8.00
2018-12-20T07:05:48.086Z,8.00
2018-12-20T07:06:48.027Z,16.00
2018-12-20T07:07:47.993Z,16.00
2018-12-20T07:08:47.961Z,16.00
2018-12-20T07:09:47.929Z,20.00
2018-12-20T07:10:47.903Z,24.00
2018-12-20T07:11:47.871Z,24.00
2018-12-20T07:12:47.836Z,28.00
2018-12-20T07:13:47.803Z,36.00
2018-12-20T07:14:47.767Z,40.00
2018-12-20T07:15:47.736Z,44.00
2018-12-20T07:16:47.704Z,52.00
2018-12-20T07:17:47.673Z,60.00
2018-12-20T07:18:47.671Z,64.00
2018-12-20T07:19:47.608Z,72.00
2018-12-20T07:20:47.575Z,80.00
2018-12-20T07:21:47.546Z,84.00
2018-12-20T07:22:47.516Z,92.00
2018-12-20T07:23:47.479Z,100.00
2018-12-20T07:24:47.445Z,104.00
2018-12-20T07:25:47.413Z,112.00
2018-12-20T07:26:47.838Z,124.00
2018-12-20T07:27:47.352Z,136.00
2018-12-20T07:28:47.319Z,152.00
2018-12-20T07:29:47.286Z,160.00
2018-12-20T07:30:47.253Z,168.00
2018-12-20T07:31:47.233Z,184.00
2018-12-20T07:32:47.188Z,204.00
2018-12-20T07:33:47.157Z,228.00
2018-12-20T07:34:48.010Z,260.00
2018-12-20T07:35:47.091Z,292.00
2018-12-20T07:36:47.060Z,328.00
2018-12-20T07:37:47.033Z,364.00
2018-12-20T07:38:46.996Z,404.00
2018-12-20T07:39:46.963Z,448.00
2018-12-20T07:40:46.931Z,476.00
2018-12-20T07:41:46.905Z,512.00
2018-12-20T07:42:46.868Z,536.00
2018-12-20T07:43:46.836Z,560.00
2018-12-20T07:44:46.805Z,600.00
2018-12-20T07:45:46.800Z,644.00
2018-12-20T07:46:46.739Z,684.00
2018-12-20T07:47:46.801Z,728.00
2018-12-20T07:48:46.683Z,764.00
2018-12-20T07:49:46.743Z,808.00
2018-12-20T07:50:46.617Z,856.00
2018-12-20T07:51:46.587Z,892.00
2018-12-20T07:52:46.565Z,940.00
2018-12-20T07:53:46.512Z,988.00
2018-12-20T07:54:46.480Z,1032.00
2018-12-20T07:55:46.448Z,1076.00
2018-12-20T07:56:46.429Z,1120.00
2018-12-20T07:57:46.386Z,1164.00
2018-12-20T07:58:46.352Z,1200.00
2018-12-20T07:59:46.330Z,1240.00
2018-12-20T08:00:46.286Z,1280.00
2018-12-20T08:01:46.255Z,1324.00
2018-12-20T08:02:46.221Z,1392.00
2018-12-20T08:03:46.197Z,1460.00
2018-12-20T08:04:46.156Z,1508.00
2018-12-20T08:05:46.140Z,1572.00
2018-12-20T08:06:46.096Z,1640.00
2018-12-20T08:07:46.059Z,1712.00
2018-12-20T08:08:46.027Z,1800.00
2018-12-20T08:09:46.003Z,1884.00
2018-12-20T08:10:45.963Z,1972.00
2018-12-20T08:11:45.931Z,2032.00
2018-12-20T08:12:45.903Z,2084.00
2018-12-20T08:13:45.866Z,2140.00
2018-12-20T08:14:45.839Z,2212.00
2018-12-20T08:15:45.802Z,2260.00
2018-12-20T08:16:46.209Z,2272.00
2018-12-20T08:17:45.739Z,2404.00
2018-12-20T08:18:45.706Z,2488.00
2018-12-20T08:19:45.675Z,2500.00
2018-12-20T08:20:45.653Z,2512.00
2018-12-20T08:21:45.609Z,2552.00
2018-12-20T08:22:45.585Z,2740.00
2018-12-20T08:23:45.549Z,2956.00
2018-12-20T08:24:45.514Z,3116.00
2018-12-20T08:25:45.482Z,3220.00
2018-12-20T08:26:45.461Z,3388.00
2018-12-20T08:27:45.418Z,3500.00
2018-12-20T08:28:45.391Z,3700.00
2018-12-20T08:29:47.274Z,4032.00
2018-12-20T08:30:45.328Z,4392.00
2018-12-20T08:31:45.290Z,4628.00
2018-12-20T08:32:45.259Z,4828.00
2018-12-20T08:33:45.259Z,4932.00
2018-12-20T08:34:45.195Z,4956.00
2018-12-20T08:35:45.213Z,4988.00
2018-12-20T08:36:45.131Z,5020.00
2018-12-20T08:37:45.106Z,5132.00
2018-12-20T08:38:45.074Z,5168.00
2018-12-20T08:39:45.037Z,5132.00
2018-12-20T08:40:45.005Z,4988.00
2018-12-20T08:41:44.979Z,4872.00
2018-12-20T08:42:44.941Z,4936.00
2018-12-20T08:43:44.910Z,5048.00
2018-12-20T08:44:44.880Z,5100.00
2018-12-20T08:45:44.852Z,5096.00
2018-12-20T08:46:44.817Z,5016.00
2018-12-20T08:47:44.783Z,4820.00
2018-12-20T08:48:44.753Z,4540.00
2018-12-20T08:49:44.721Z,4228.00
2018-12-20T08:50:44.694Z,4008.00
2018-12-20T08:51:48.978Z,4008.00
2018-12-20T08:52:44.626Z,3980.00
2018-12-20T08:53:44.599Z,4172.00
2018-12-20T08:54:44.565Z,4388.00
2018-12-20T08:55:44.533Z,4280.00
2018-12-20T08:56:44.500Z,4376.00
2018-12-20T08:57:44.469Z,4500.00
2018-12-20T08:58:44.456Z,4836.00
2018-12-20T08:59:44.417Z,5636.00
2018-12-20T09:00:44.379Z,6424.00
2018-12-20T09:01:44.346Z,6520.00
2018-12-20T09:02:44.313Z,6520.00
2018-12-20T09:03:44.281Z,6132.00
2018-12-20T09:04:44.256Z,6200.00
2018-12-20T09:05:44.224Z,6564.00
2018-12-20T09:06:44.188Z,6484.00
2018-12-20T09:07:44.156Z,6480.00
2018-12-20T09:08:44.126Z,6496.00
2018-12-20T09:09:44.098Z,6412.00
2018-12-20T09:10:44.062Z,6336.00
2018-12-20T09:11:44.032Z,6292.00
2018-12-20T09:12:43.999Z,6208.00
2018-12-20T09:13:43.972Z,6100.00
2018-12-20T09:14:43.939Z,6228.00
2018-12-20T09:15:43.907Z,6316.00
2018-12-20T09:16:43.877Z,6416.00
2018-12-20T09:17:43.849Z,6428.00
2018-12-20T09:18:43.813Z,6160.00
2018-12-20T09:19:43.792Z,5748.00
2018-12-20T09:20:43.750Z,5564.00
2018-12-20T09:21:43.723Z,5512.00
2018-12-20T09:22:43.699Z,5436.00
2018-12-20T09:23:43.657Z,5468.00
2018-12-20T09:24:43.627Z,5728.00
2018-12-20T09:25:43.596Z,6160.00
2018-12-20T09:26:43.566Z,6756.00
2018-12-20T09:27:43.533Z,7356.00
2018-12-20T09:28:43.502Z,7640.00
2018-12-20T09:29:43.471Z,7580.00
2018-12-20T09:30:43.442Z,7528.00
2018-12-20T09:31:43.412Z,7920.00
2018-12-20T09:32:43.381Z,7964.00
2018-12-20T09:33:43.352Z,7796.00
2018-12-20T09:34:43.316Z,7680.00
2018-12-20T09:35:43.287Z,8016.00
2018-12-20T09:36:43.253Z,8064.00
2018-12-20T09:37:43.223Z,7676.00
2018-12-20T09:38:43.208Z,7492.00
2018-12-20T09:39:43.161Z,7424.00
2018-12-20T09:40:43.138Z,7008.00
2018-12-20T09:41:43.102Z,6660.00
2018-12-20T09:42:43.072Z,6544.00
2018-12-20T09:43:43.038Z,6628.00
2018-12-20T09:44:43.010Z,6524.00
2018-12-20T09:45:42.976Z,6424.00
2018-12-20T09:46:42.960Z,6512.00
2018-12-20T09:47:42.917Z,6492.00
2018-12-20T09:48:42.900Z,6432.00
2018-12-20T09:49:42.857Z,6228.00
2018-12-20T09:50:42.824Z,5748.00
2018-12-20T09:51:42.796Z,5704.00
2018-12-20T09:52:42.764Z,5712.00
2018-12-20T09:53:42.731Z,5596.00
2018-12-20T09:54:42.704Z,5388.00
2018-12-20T09:55:42.688Z,5172.00
2018-12-20T09:56:42.638Z,5108.00
2018-12-20T09:57:42.619Z,5016.00
2018-12-20T09:58:42.578Z,4996.00
2018-12-20T09:59:42.556Z,4964.00
2018-12-20T10:00:42.514Z,4912.00
2018-12-20T10:01:42.486Z,4912.00
2018-12-20T10:02:42.455Z,5008.00
2018-12-20T10:03:42.431Z,5180.00
2018-12-20T10:04:42.391Z,5400.00
2018-12-20T10:05:42.364Z,5556.00
2018-12-20T10:06:42.426Z,5688.00
2018-12-20T10:07:42.302Z,5680.00
2018-12-20T10:08:42.270Z,5532.00
2018-12-20T10:09:42.238Z,5428.00
2018-12-20T10:10:42.216Z,5536.00
2018-12-20T10:11:42.177Z,5772.00
2018-12-20T10:12:42.145Z,5896.00
2018-12-20T10:13:42.114Z,5804.00
2018-12-20T10:14:42.101Z,5540.00
2018-12-20T10:15:42.056Z,5264.00
2018-12-20T10:16:42.023Z,5112.00
2018-12-20T10:17:41.993Z,4976.00
2018-12-20T10:18:41.960Z,4848.00
2018-12-20T10:19:41.931Z,4800.00
2018-12-20T10:20:41.907Z,5016.00
2018-12-20T10:21:41.889Z,5216.00
2018-12-20T10:22:41.942Z,5508.00
2018-12-20T10:23:41.806Z,5940.00
2018-12-20T10:24:41.777Z,6128.00
2018-12-20T10:25:41.771Z,5976.00
2018-12-20T10:26:41.715Z,5728.00
2018-12-20T10:27:41.686Z,5296.00
2018-12-20T10:28:41.671Z,4872.00
2018-12-20T10:29:41.622Z,4488.00
2018-12-20T10:30:41.592Z,4280.00
2018-12-20T10:31:41.563Z,4264.00
2018-12-20T10:32:41.531Z,4224.00
2018-12-20T10:33:41.500Z,4336.00
2018-12-20T10:34:41.470Z,4664.00
2018-12-20T10:35:41.440Z,4968.00
2018-12-20T10:36:41.409Z,5160.00
2018-12-20T10:37:41.375Z,5000.00
2018-12-20T10:38:41.759Z,4756.00
2018-12-20T10:39:41.315Z,4624.00
2018-12-20T10:40:41.284Z,4840.00
2018-12-20T10:41:41.256Z,5380.00
2018-12-20T10:42:41.226Z,6140.00
2018-12-20T10:43:41.192Z,6896.00
2018-12-20T10:44:41.161Z,7504.00
2018-12-20T10:45:41.139Z,8008.00
2018-12-20T10:46:41.100Z,8620.00
2018-12-20T10:47:41.098Z,9232.00
2018-12-20T10:48:41.042Z,9908.00
2018-12-20T10:49:41.008Z,10504.00
2018-12-20T10:50:40.977Z,10988.00
2018-12-20T10:51:40.945Z,11512.00
2018-12-20T10:52:40.918Z,12084.00
2018-12-20T10:53:40.884Z,12364.00
2018-12-20T10:54:40.861Z,12376.00
2018-12-20T10:55:40.823Z,12164.00
2018-12-20T10:56:40.805Z,11736.00
2018-12-20T10:57:40.762Z,11344.00
2018-12-20T10:58:40.741Z,10888.00
2018-12-20T10:59:40.701Z,10644.00
2018-12-20T11:00:40.687Z,10304.00
2018-12-20T11:01:40.648Z,9204.00
2018-12-20T11:02:40.615Z,8984.00
2018-12-20T11:03:40.676Z,9668.00
2018-12-20T11:04:40.549Z,10036.00
2018-12-20T11:05:40.519Z,9740.00
2018-12-20T11:06:40.490Z,9132.00
2018-12-20T11:07:40.458Z,9180.00
2018-12-20T11:08:40.428Z,9200.00
2018-12-20T11:09:40.398Z,9500.00
2018-12-20T11:10:40.375Z,9412.00
2018-12-20T11:11:40.338Z,9140.00
2018-12-20T11:12:40.308Z,8960.00
2018-12-20T11:13:40.279Z,8504.00
2018-12-20T11:14:40.252Z,7720.00
2018-12-20T11:15:40.218Z,7144.00
2018-12-20T11:16:40.202Z,6608.00
2018-12-20T11:17:40.168Z,6296.00
2018-12-20T11:18:40.126Z,6364.00
2018-12-20T11:19:40.095Z,6324.00
2018-12-20T11:20:40.069Z,6268.00
2018-12-20T11:21:40.036Z,6900.00
2018-12-20T11:22:40.005Z,7680.00
2018-12-20T11:23:39.974Z,8008.00
2018-12-20T11:24:39.946Z,8404.00
2018-12-20T11:25:39.913Z,8852.00
2018-12-20T11:26:39.892Z,8968.00
2018-12-20T11:27:39.852Z,8708.00
2018-12-20T11:28:39.823Z,8640.00
2018-12-20T11:29:39.797Z,7840.00
2018-12-20T11:30:39.767Z,6908.00
2018-12-20T11:31:39.739Z,6992.00
2018-12-20T11:32:39.716Z,7696.00
2018-12-20T11:33:39.671Z,7640.00
2018-12-20T11:34:39.652Z,7216.00
2018-12-20T11:35:39.610Z,6864.00
2018-12-20T11:36:39.677Z,7124.00
2018-12-20T11:37:39.591Z,7280.00
2018-12-20T11:38:39.520Z,8116.00
2018-12-20T11:39:39.495Z,9532.00
2018-12-20T11:40:39.459Z,9844.00
2018-12-20T11:41:39.429Z,11176.00
2018-12-20T11:42:39.397Z,10968.00
2018-12-20T11:43:39.426Z,10000.00
2018-12-20T11:44:39.341Z,8536.00
2018-12-20T11:45:39.314Z,7296.00
2018-12-20T11:46:39.277Z,6228.00
2018-12-20T11:47:45.860Z,5776.00
2018-12-20T11:48:39.220Z,5456.00
2018-12-20T11:49:39.187Z,5336.00
2018-12-20T11:50:39.184Z,4820.00
2018-12-20T11:51:39.128Z,4608.00
2018-12-20T11:52:42.485Z,4852.00
2018-12-20T11:53:39.065Z,5240.00
2018-12-20T11:54:39.036Z,5428.00
2018-12-20T11:55:39.011Z,5488.00
2018-12-20T11:56:38.974Z,5348.00
2018-12-20T11:57:38.944Z,4548.00
2018-12-20T11:58:38.928Z,4484.00
2018-12-20T11:59:38.885Z,4032.00
2018-12-20T12:00:38.852Z,3880.00
2018-12-20T12:01:38.827Z,4108.00
2018-12-20T12:02:38.793Z,4016.00
2018-12-20T12:03:38.763Z,3836.00
2018-12-20T12:04:38.731Z,3956.00
2018-12-20T12:05:38.711Z,3820.00
2018-12-20T12:06:38.670Z,4276.00
2018-12-20T12:07:38.642Z,4656.00
2018-12-20T12:08:38.610Z,4864.00
2018-12-20T12:09:38.580Z,4468.00
2018-12-20T12:10:38.549Z,4764.00
2018-12-20T12:11:38.517Z,4160.00
2018-12-20T12:12:38.524Z,4024.00
2018-12-20T12:13:38.463Z,3980.00
2018-12-20T12:14:38.428Z,3420.00
2018-12-20T12:15:38.396Z,2976.00
2018-12-20T12:16:38.365Z,2992.00
2018-12-20T12:17:38.334Z,2892.00
2018-12-20T12:18:38.304Z,2908.00
2018-12-20T12:19:38.287Z,3572.00
2018-12-20T12:20:38.242Z,3536.00
2018-12-20T12:21:38.220Z,3560.00
2018-12-20T12:22:38.182Z,3624.00
2018-12-20T12:23:38.151Z,3712.00
2018-12-20T12:24:38.122Z,3844.00
2018-12-20T12:25:38.098Z,3768.00
2018-12-20T12:26:38.063Z,3836.00
2018-12-20T12:27:38.031Z,3828.00
2018-12-20T12:28:37.998Z,3692.00
2018-12-20T12:29:37.967Z,3516.00
2018-12-20T12:30:37.942Z,3544.00
2018-12-20T12:31:37.915Z,3412.00
2018-12-20T12:32:37.875Z,3844.00
2018-12-20T12:33:37.850Z,3780.00
2018-12-20T12:34:37.836Z,4304.00
2018-12-20T12:35:37.786Z,4244.00
2018-12-20T12:36:37.754Z,4004.00
2018-12-20T12:37:37.724Z,3752.00
2018-12-20T12:38:37.694Z,3180.00
2018-12-20T12:39:37.662Z,2916.00
2018-12-20T12:40:37.634Z,2848.00
2018-12-20T12:41:37.611Z,2932.00
2018-12-20T12:42:37.570Z,3416.00
2018-12-20T12:43:37.540Z,4464.00
2018-12-20T12:44:37.507Z,4796.00
2018-12-20T12:45:37.484Z,5052.00